Pagrindinis puslapis
METAR-TAF:

METAR-TAF

Oro uostai :

Oro uostas

Kachramanmarašas, Turkija

platuma: 37-32-20N, ilguma: 036-57-12E, Aukštis: 525 m

Dabartinis oras

Ataskaita buvo paskelbta 26 minutes, ne 09:50 UTC
Vėjas 2 kt nuo kintamojo kryptimis
Temperatūra 24°C
Drėgmė 15%
Slėgis 1019 hPa
Matomumas 10 km arba daugiau
nėra debesų žemiau 1500 m ir nėra kamuolinių lietaus debesų

METAR: LTCN 270950Z VRB02KT CAVOK 24/M04 Q1019 NOSIG

Laikas: 13:16 (10:16 UTC)

Prognozė

Ataskaita buvo paskelbta 2 valandos ir 36 minutes, ne 07:40 UTC
Prognozė galioja nuo 27 metu 09 UTC su 27 metu 18 UTC
Vėjas 2 kt nuo kintamojo kryptimis
Matomumas 10 km arba daugiau
nėra debesų žemiau 1500 m ir nėra kamuolinių lietaus debesų
Tapsmas
nuo 27 metu 09 UTC su 27 metu 12 UTC
Mažai debesys ne aukštis 4000 ft
Su prošvaistėmis ne aukštis 12000 ft

TAF: LTCN 270740Z 2709/2718 VRB02KT CAVOK BECMG 2709/2712 FEW040 BKN120

Orai ataskaitas ir orų prognozės (METAR, TAF).

turimą stotys yra geltonos ir raudonos taškus žemėlapyje.

Perkelti pele per norėdami pamatyti stoties vardą.

Tada spustelėkite, norėdami matyti oro stebėjimo ir prognozės.

Norėdami pakeisti žemėlapį: spustelėkite ant žalios mygtukų su juodo kryžiaus žemyn,; žalią mygtuką su brūkšneliu, jei norite nutolinti; arba žalių rodyklių gretimoms žemėlapius.


METAR-TAF: